Time;durP1;ratioP1;P1;durP2;ratioP2;P2;SDS_P1;SDS_P2;PMS_P1;PMS_P2;Temp;Humidity;BMP_temperature;BMP_pressure;BME280_temperature;BME280_humidity;BME280_pressure;Samples;Min_cycle;Max_cycle;Signal;HPM_P1;HPM_P2
2023/09/14 00:00:20;;;;;;;7.80;1.98;;;;;;;;;;5005663;28;98243;-69
2023/09/14 00:02:46;;;;;;;16.73;3.05;;;;;;;;;;5006875;28;98474;-70
2023/09/14 00:05:14;;;;;;;11.57;2.17;;;;;;;;;;5006896;28;99900;-68
2023/09/14 00:07:40;;;;;;;3.42;1.75;;;;;;;;;;5006904;27;98591;-71
2023/09/14 00:10:07;;;;;;;8.85;2.67;;;;;;;;;;5007507;28;98709;-69
2023/09/14 00:12:36;;;;;;;16.50;3.90;;;;;;;;;;5008708;28;99517;-69
2023/09/14 00:15:02;;;;;;;6.80;1.90;;;;;;;;;;5005155;28;98609;-69
2023/09/14 00:17:29;;;;;;;11.13;2.15;;;;;;;;;;5005111;28;100396;-70
2023/09/14 00:19:55;;;;;;;6.53;2.40;;;;;;;;;;5007340;28;98248;-70
2023/09/14 00:22:22;;;;;;;10.00;2.00;;;;;;;;;;5007314;27;98644;-69
2023/09/14 00:24:48;;;;;;;6.65;2.40;;;;;;;;;;5007628;28;98897;-70
2023/09/14 00:27:15;;;;;;;4.35;1.95;;;;;;;;;;5007041;28;98349;-70
2023/09/14 00:29:41;;;;;;;8.68;2.50;;;;;;;;;;5006556;28;98503;-70
2023/09/14 00:32:08;;;;;;;7.53;2.63;;;;;;;;;;5006693;28;99482;-70
2023/09/14 00:34:34;;;;;;;7.93;2.70;;;;;;;;;;5009718;28;98180;-68
2023/09/14 00:37:00;;;;;;;5.95;2.03;;;;;;;;;;5007159;28;98913;-69
2023/09/14 00:39:27;;;;;;;3.75;2.22;;;;;;;;;;5006532;28;98334;-69
2023/09/14 00:41:53;;;;;;;5.55;2.20;;;;;;;;;;5005329;28;100839;-69
2023/09/14 00:44:20;;;;;;;6.28;2.40;;;;;;;;;;5005317;28;101015;-70
2023/09/14 00:46:47;;;;;;;6.68;3.03;;;;;;;;;;5005706;28;98768;-70
2023/09/14 00:49:13;;;;;;;5.30;2.30;;;;;;;;;;5005960;28;99469;-70
2023/09/14 00:51:40;;;;;;;4.18;2.40;;;;;;;;;;5006819;28;98929;-70
2023/09/14 00:54:06;;;;;;;11.50;2.30;;;;;;;;;;5007397;28;98529;-70
2023/09/14 00:56:33;;;;;;;7.80;2.38;;;;;;;;;;5010106;27;98650;-68
2023/09/14 00:59:00;;;;;;;8.45;1.90;;;;;;;;;;5039372;27;98383;-70
2023/09/14 01:01:27;;;;;;;4.63;1.90;;;;;;;;;;5006718;28;98441;-70
2023/09/14 01:03:53;;;;;;;7.28;2.47;;;;;;;;;;5036366;27;99028;-70
2023/09/14 01:06:20;;;;;;;6.70;2.03;;;;;;;;;;5007675;27;98247;-70
2023/09/14 01:08:47;;;;;;;5.38;2.20;;;;;;;;;;5007790;27;98910;-69
2023/09/14 01:11:13;;;;;;;6.88;2.17;;;;;;;;;;5005716;28;98850;-71
2023/09/14 01:13:48;;;;;;;3.97;2.30;;;;;;;;;;5006420;28;98206;-70
2023/09/14 01:16:24;;;;;;;6.60;2.28;;;;;;;;;;5004816;28;98632;-69
2023/09/14 01:18:59;;;;;;;5.68;2.17;;;;;;;;;;5041628;27;99215;-70
2023/09/14 01:21:52;;;;;;;7.00;2.67;;;;;;;;;;5038819;27;98776;-69
2023/09/14 01:24:19;;;;;;;;;;;;;;;;;;5038093;27;102104;-69
2023/09/14 01:26:46;;;;;;;4.72;2.20;;;;;;;;;;5005153;28;98261;-71
2023/09/14 01:29:13;;;;;;;5.43;2.25;;;;;;;;;;5003949;28;98510;-69
2023/09/14 01:31:41;;;;;;;4.60;2.13;;;;;;;;;;5037964;27;99150;-70
2023/09/14 01:34:07;;;;;;;4.38;2.00;;;;;;;;;;5038766;27;98049;-70
2023/09/14 01:36:53;;;;;;;4.50;2.15;;;;;;;;;;5006008;28;98839;-70
2023/09/14 01:39:23;;;;;;;8.95;2.20;;;;;;;;;;5037735;27;101774;-70
2023/09/14 01:41:54;;;;;;;8.27;2.17;;;;;;;;;;5008234;28;98384;-69
2023/09/14 01:44:25;;;;;;;2.25;2.05;;;;;;;;;;5038903;27;101238;-69
2023/09/14 01:46:51;;;;;;;4.68;2.00;;;;;;;;;;5007755;28;99007;-69
2023/09/14 01:49:18;;;;;;;2.47;2.03;;;;;;;;;;5009430;28;98531;-68
2023/09/14 01:51:44;;;;;;;6.18;1.73;;;;;;;;;;5009330;28;98954;-69
2023/09/14 01:54:11;;;;;;;5.72;2.50;;;;;;;;;;5008483;28;99113;-71
2023/09/14 01:56:38;;;;;;;5.35;2.30;;;;;;;;;;5008231;28;98604;-71
2023/09/14 01:59:04;;;;;;;3.20;2.00;;;;;;;;;;5040855;27;98677;-70
2023/09/14 02:01:31;;;;;;;4.72;2.17;;;;;;;;;;5011424;28;99667;-70
2023/09/14 02:03:57;;;;;;;13.95;2.42;;;;;;;;;;5007898;28;99052;-70
2023/09/14 02:06:24;;;;;;;5.88;2.38;;;;;;;;;;5006939;28;98319;-70
2023/09/14 02:08:50;;;;;;;6.05;2.00;;;;;;;;;;5009635;28;98494;-69
2023/09/14 02:11:19;;;;;;;6.00;2.28;;;;;;;;;;5009117;28;98665;-70
2023/09/14 02:13:46;;;;;;;3.22;2.20;;;;;;;;;;5007355;28;98894;-70
2023/09/14 02:16:12;;;;;;;3.90;2.30;;;;;;;;;;5041507;27;101166;-69
2023/09/14 02:18:41;;;;;;;11.68;2.75;;;;;;;;;;5040564;27;101600;-69
2023/09/14 02:21:07;;;;;;;10.77;3.65;;;;;;;;;;5008377;28;98398;-70
2023/09/14 02:23:34;;;;;;;7.10;2.50;;;;;;;;;;5011807;28;98733;-69
2023/09/14 02:26:00;;;;;;;6.03;2.45;;;;;;;;;;5009080;28;98242;-69
2023/09/14 02:28:27;;;;;;;8.50;2.85;;;;;;;;;;5008346;28;98798;-68
2023/09/14 02:30:53;;;;;;;4.95;2.33;;;;;;;;;;5008834;28;98715;-69
2023/09/14 02:33:20;;;;;;;8.63;2.30;;;;;;;;;;5008186;28;98122;-69
2023/09/14 02:35:50;;;;;;;6.07;2.05;;;;;;;;;;5040999;27;100680;-69
2023/09/14 02:38:17;;;;;;;6.32;2.42;;;;;;;;;;5041206;27;98252;-69
2023/09/14 02:40:44;;;;;;;4.97;2.28;;;;;;;;;;5008108;28;99102;-69
2023/09/14 02:43:10;;;;;;;8.57;2.03;;;;;;;;;;5008383;28;98434;-70
2023/09/14 02:45:37;;;;;;;6.15;2.33;;;;;;;;;;5012468;28;98823;-69
2023/09/14 02:48:04;;;;;;;3.00;1.95;;;;;;;;;;5008500;28;98882;-69
2023/09/14 02:50:30;;;;;;;5.45;1.92;;;;;;;;;;5005282;28;100621;-69
2023/09/14 02:52:57;;;;;;;3.97;2.55;;;;;;;;;;5006638;28;98526;-69
2023/09/14 02:55:24;;;;;;;2.47;2.25;;;;;;;;;;5005541;28;98524;-70
2023/09/14 02:57:51;;;;;;;9.85;4.03;;;;;;;;;;5005992;28;99768;-69
2023/09/14 03:00:18;;;;;;;9.27;3.03;;;;;;;;;;5006413;28;98276;-69
2023/09/14 03:02:45;;;;;;;5.30;2.63;;;;;;;;;;5005861;28;100451;-70
2023/09/14 03:05:13;;;;;;;5.35;2.17;;;;;;;;;;5006131;28;101416;-69
2023/09/14 03:07:39;;;;;;;5.78;2.58;;;;;;;;;;5008879;28;99431;-70
2023/09/14 03:10:06;;;;;;;4.18;2.50;;;;;;;;;;5005462;28;101289;-69
2023/09/14 03:12:33;;;;;;;4.60;2.70;;;;;;;;;;5005754;28;98272;-69
2023/09/14 03:15:00;;;;;;;3.53;2.38;;;;;;;;;;5006233;28;100866;-68
2023/09/14 03:17:26;;;;;;;8.00;2.30;;;;;;;;;;5006454;28;98937;-70
2023/09/14 03:19:53;;;;;;;4.03;2.70;;;;;;;;;;5007959;28;98320;-69
2023/09/14 03:22:19;;;;;;;7.78;2.97;;;;;;;;;;5007219;28;98928;-69
2023/09/14 03:24:46;;;;;;;4.60;2.50;;;;;;;;;;5007473;28;99003;-70
2023/09/14 03:27:12;;;;;;;4.57;3.00;;;;;;;;;;5005637;28;98312;-69
2023/09/14 03:29:39;;;;;;;3.28;2.70;;;;;;;;;;5009215;28;99570;-69
2023/09/14 03:32:06;;;;;;;5.45;2.97;;;;;;;;;;5005829;28;98254;-69
2023/09/14 03:34:32;;;;;;;3.65;2.58;;;;;;;;;;5005905;28;98571;-69
2023/09/14 03:36:59;;;;;;;5.53;2.63;;;;;;;;;;5007030;28;98267;-69
2023/09/14 03:39:25;;;;;;;5.90;2.92;;;;;;;;;;5006184;28;98228;-69
2023/09/14 03:41:52;;;;;;;6.45;2.45;;;;;;;;;;5007654;28;98656;-69
2023/09/14 03:44:18;;;;;;;8.35;2.90;;;;;;;;;;5004721;28;100881;-70
2023/09/14 03:46:44;;;;;;;3.63;2.22;;;;;;;;;;5006914;28;98771;-69
2023/09/14 03:49:11;;;;;;;3.65;2.58;;;;;;;;;;5007741;28;98580;-68
2023/09/14 03:51:37;;;;;;;4.22;2.50;;;;;;;;;;5007843;28;100141;-69
2023/09/14 03:54:05;;;;;;;4.57;2.88;;;;;;;;;;5005923;28;101720;-70
2023/09/14 03:56:35;;;;;;;3.75;2.35;;;;;;;;;;5004156;28;100082;-69
2023/09/14 03:59:02;;;;;;;7.90;3.22;;;;;;;;;;5004901;28;98303;-70
2023/09/14 04:01:28;;;;;;;16.48;3.28;;;;;;;;;;5006800;28;98272;-70
2023/09/14 04:03:55;;;;;;;7.45;2.97;;;;;;;;;;5005622;28;100820;-70
2023/09/14 04:06:21;;;;;;;10.63;4.00;;;;;;;;;;5005317;28;98292;-70
2023/09/14 04:08:48;;;;;;;6.88;4.13;;;;;;;;;;4998355;28;98687;-70
2023/09/14 04:11:15;;;;;;;7.03;3.58;;;;;;;;;;5007692;28;98936;-70
2023/09/14 04:13:42;;;;;;;5.28;2.97;;;;;;;;;;5006471;28;98889;-70
2023/09/14 04:16:09;;;;;;;4.55;3.38;;;;;;;;;;5005253;28;98953;-69
2023/09/14 04:18:42;;;;;;;7.32;3.70;;;;;;;;;;5005202;28;98592;-71
2023/09/14 04:21:16;;;;;;;9.68;3.78;;;;;;;;;;5004605;28;98440;-70
2023/09/14 04:23:45;;;;;;;6.25;3.58;;;;;;;;;;5005874;28;99078;-69
2023/09/14 04:26:13;;;;;;;7.72;3.45;;;;;;;;;;5004651;28;98233;-70
2023/09/14 04:28:40;;;;;;;6.68;3.80;;;;;;;;;;5004323;28;100434;-70
2023/09/14 04:31:09;;;;;;;9.00;3.47;;;;;;;;;;5005433;28;100312;-68
2023/09/14 04:33:36;;;;;;;12.63;3.65;;;;;;;;;;5008183;28;99041;-69
2023/09/14 04:36:05;;;;;;;12.25;4.05;;;;;;;;;;5004469;28;98922;-69
2023/09/14 04:38:32;;;;;;;7.80;3.80;;;;;;;;;;5005352;28;98257;-68
2023/09/14 04:41:06;;;;;;;10.07;4.05;;;;;;;;;;5004258;28;98620;-72
2023/09/14 04:43:33;;;;;;;10.52;4.28;;;;;;;;;;5004267;28;99199;-69
2023/09/14 04:46:00;;;;;;;5.95;3.78;;;;;;;;;;5005798;28;98292;-70
2023/09/14 04:48:27;;;;;;;11.02;4.00;;;;;;;;;;5005864;28;98911;-70
2023/09/14 04:50:56;;;;;;;7.18;3.78;;;;;;;;;;5005863;28;101237;-70
2023/09/14 04:53:26;;;;;;;8.23;3.63;;;;;;;;;;5006204;28;98306;-70
2023/09/14 04:55:53;;;;;;;8.43;3.70;;;;;;;;;;5007273;28;99610;-70
2023/09/14 04:58:21;;;;;;;9.32;3.83;;;;;;;;;;5004434;28;98463;-69
2023/09/14 05:00:52;;;;;;;9.65;3.60;;;;;;;;;;5004791;28;100691;-71
2023/09/14 05:03:19;;;;;;;7.45;3.40;;;;;;;;;;5003472;28;101605;-69
2023/09/14 05:05:50;;;;;;;8.00;4.40;;;;;;;;;;5005063;28;98937;-69
2023/09/14 05:08:17;;;;;;;7.22;3.53;;;;;;;;;;5001972;28;98771;-69
2023/09/14 05:10:45;;;;;;;4.10;3.00;;;;;;;;;;5004659;28;98924;-70
2023/09/14 05:13:11;;;;;;;7.57;3.75;;;;;;;;;;5003693;28;98473;-69
2023/09/14 05:15:38;;;;;;;5.57;3.45;;;;;;;;;;5004469;28;100566;-69
2023/09/14 05:18:05;;;;;;;12.98;3.40;;;;;;;;;;5006846;28;101584;-70
2023/09/14 05:20:31;;;;;;;4.93;2.85;;;;;;;;;;5007554;28;100092;-70
2023/09/14 05:22:58;;;;;;;15.35;3.88;;;;;;;;;;5008453;28;99886;-69
2023/09/14 05:25:27;;;;;;;4.00;3.33;;;;;;;;;;5008010;28;98240;-69
2023/09/14 05:27:54;;;;;;;7.13;3.38;;;;;;;;;;5007677;28;100243;-70
2023/09/14 05:30:23;;;;;;;3.33;2.92;;;;;;;;;;5006480;28;99076;-70
2023/09/14 05:32:49;;;;;;;9.32;3.17;;;;;;;;;;5007853;28;98377;-70
2023/09/14 05:35:18;;;;;;;5.55;3.05;;;;;;;;;;5006557;28;99180;-71
2023/09/14 05:37:46;;;;;;;5.47;3.83;;;;;;;;;;5007171;28;99474;-70
2023/09/14 05:40:13;;;;;;;7.63;3.15;;;;;;;;;;5010735;28;98260;-70
2023/09/14 05:42:41;;;;;;;2.85;2.60;;;;;;;;;;5007460;28;99244;-69
2023/09/14 05:45:09;;;;;;;5.45;2.75;;;;;;;;;;5006809;28;98272;-71
2023/09/14 05:47:36;;;;;;;8.40;3.72;;;;;;;;;;5007455;28;101690;-70
2023/09/14 05:50:05;;;;;;;6.72;2.95;;;;;;;;;;5007326;28;99006;-71
2023/09/14 05:52:32;;;;;;;14.48;3.55;;;;;;;;;;5000734;28;98972;-69
2023/09/14 05:54:59;;;;;;;5.10;2.95;;;;;;;;;;5007825;28;99769;-70
2023/09/14 05:57:29;;;;;;;7.05;2.80;;;;;;;;;;5006670;28;98957;-70
2023/09/14 05:59:55;;;;;;;6.43;3.22;;;;;;;;;;5006125;28;98477;-70
2023/09/14 06:02:22;;;;;;;4.32;2.88;;;;;;;;;;5011643;28;98486;-70
2023/09/14 06:04:48;;;;;;;8.55;3.28;;;;;;;;;;5007592;28;98301;-69
2023/09/14 06:07:15;;;;;;;8.27;3.15;;;;;;;;;;5005363;28;101443;-70
2023/09/14 06:09:41;;;;;;;9.57;2.80;;;;;;;;;;5008722;28;98750;-71
2023/09/14 06:12:09;;;;;;;4.93;2.60;;;;;;;;;;5007508;28;98194;-71
2023/09/14 06:14:38;;;;;;;10.68;4.00;;;;;;;;;;5001098;28;98272;-70
2023/09/14 06:17:05;;;;;;;7.03;2.85;;;;;;;;;;5008600;28;99964;-70
2023/09/14 06:19:31;;;;;;;4.15;2.78;;;;;;;;;;5007981;28;98531;-69
2023/09/14 06:21:58;;;;;;;10.88;2.97;;;;;;;;;;5011392;28;99611;-69
2023/09/14 06:24:24;;;;;;;7.65;3.05;;;;;;;;;;5006905;28;98254;-70
2023/09/14 06:26:51;;;;;;;4.50;2.95;;;;;;;;;;5008522;28;98744;-70
2023/09/14 06:29:17;;;;;;;13.52;3.40;;;;;;;;;;5009108;28;99027;-70
2023/09/14 06:31:44;;;;;;;6.20;3.00;;;;;;;;;;5011238;28;98401;-70
2023/09/14 06:34:11;;;;;;;5.30;3.45;;;;;;;;;;5010666;28;98618;-70
2023/09/14 06:36:40;;;;;;;14.45;3.13;;;;;;;;;;5010008;28;98018;-69
2023/09/14 06:39:07;;;;;;;8.63;3.72;;;;;;;;;;5007786;28;98802;-71
2023/09/14 06:41:33;;;;;;;8.63;2.97;;;;;;;;;;5004477;28;99075;-71
2023/09/14 06:44:03;;;;;;;9.00;3.20;;;;;;;;;;5009607;28;100937;-70
2023/09/14 06:46:30;;;;;;;4.72;3.38;;;;;;;;;;5007312;28;98616;-70
2023/09/14 06:48:57;;;;;;;5.82;2.92;;;;;;;;;;5004726;28;99024;-72
2023/09/14 06:51:24;;;;;;;6.60;3.47;;;;;;;;;;5006953;28;98282;-69
2023/09/14 06:53:51;;;;;;;5.97;3.33;;;;;;;;;;5005838;28;98584;-70
2023/09/14 06:56:18;;;;;;;4.50;3.55;;;;;;;;;;5006300;28;99191;-69
2023/09/14 06:58:45;;;;;;;11.82;3.92;;;;;;;;;;5007458;28;98255;-70
2023/09/14 07:01:11;;;;;;;13.38;5.53;;;;;;;;;;5006906;28;98816;-69
2023/09/14 07:03:38;;;;;;;6.78;3.17;;;;;;;;;;5006251;28;98986;-70
2023/09/14 07:06:07;;;;;;;9.68;3.70;;;;;;;;;;5011121;28;98244;-71
2023/09/14 07:08:34;;;;;;;15.63;4.25;;;;;;;;;;5006606;28;99270;-70
2023/09/14 07:11:00;;;;;;;15.88;4.45;;;;;;;;;;5007899;28;98216;-70
2023/09/14 07:13:27;;;;;;;12.20;3.60;;;;;;;;;;5006422;28;100068;-71
2023/09/14 07:15:54;;;;;;;10.95;4.38;;;;;;;;;;5006431;28;100069;-70
2023/09/14 07:18:27;;;;;;;21.20;5.55;;;;;;;;;;5006988;28;98712;-69
2023/09/14 07:20:55;;;;;;;12.45;4.82;;;;;;;;;;5007626;28;98625;-69
2023/09/14 07:23:21;;;;;;;4.88;4.45;;;;;;;;;;5006292;28;100031;-69
2023/09/14 07:25:49;;;;;;;10.10;4.40;;;;;;;;;;5007652;28;98284;-71
2023/09/14 07:28:19;;;;;;;5.78;4.30;;;;;;;;;;5011006;28;99303;-69
2023/09/14 07:30:47;;;;;;;12.82;4.40;;;;;;;;;;5008688;28;98646;-69
2023/09/14 07:33:14;;;;;;;10.75;6.28;;;;;;;;;;5009958;28;98426;-71
2023/09/14 07:35:40;;;;;;;9.18;4.15;;;;;;;;;;5009168;28;99323;-70
2023/09/14 07:38:08;;;;;;;7.30;3.75;;;;;;;;;;5006349;28;98411;-70
2023/09/14 07:40:35;;;;;;;8.48;3.80;;;;;;;;;;5006547;28;99608;-71
2023/09/14 07:43:02;;;;;;;9.05;3.78;;;;;;;;;;5005344;28;98941;-70
2023/09/14 07:45:29;;;;;;;3.90;3.45;;;;;;;;;;5006453;28;98239;-70
2023/09/14 07:48:03;;;;;;;12.35;4.05;;;;;;;;;;5006834;28;98348;-69
2023/09/14 07:50:33;;;;;;;13.95;4.65;;;;;;;;;;5009633;28;100576;-70
2023/09/14 07:52:59;;;;;;;8.15;3.58;;;;;;;;;;5006012;28;99296;-71
2023/09/14 07:55:25;;;;;;;5.03;3.53;;;;;;;;;;5007105;28;99102;-71
2023/09/14 07:57:52;;;;;;;15.75;5.35;;;;;;;;;;5005637;28;98338;-69
2023/09/14 08:00:18;;;;;;;9.63;4.28;;;;;;;;;;5006869;28;99473;-69
2023/09/14 08:02:45;;;;;;;13.32;3.83;;;;;;;;;;5005220;28;99885;-71
2023/09/14 08:05:11;;;;;;;11.52;3.45;;;;;;;;;;5006194;28;98270;-70
2023/09/14 08:07:38;;;;;;;7.95;3.67;;;;;;;;;;5005037;28;99498;-71
2023/09/14 08:10:05;;;;;;;15.07;3.53;;;;;;;;;;5005682;28;99932;-70
2023/09/14 08:12:38;;;;;;;10.70;3.78;;;;;;;;;;5009025;28;99669;-70
2023/09/14 08:15:07;;;;;;;17.23;3.90;;;;;;;;;;5006912;28;100339;-69
2023/09/14 08:17:34;;;;;;;9.00;3.75;;;;;;;;;;5005601;28;98291;-70
2023/09/14 08:20:01;;;;;;;13.73;3.85;;;;;;;;;;5006124;28;99901;-70
2023/09/14 08:22:29;;;;;;;15.02;4.70;;;;;;;;;;5000182;28;100018;-70
2023/09/14 08:25:00;;;;;;;10.15;5.43;;;;;;;;;;5009169;28;98401;-70
2023/09/14 08:27:28;;;;;;;8.50;4.13;;;;;;;;;;5006669;28;101822;-71
2023/09/14 08:29:54;;;;;;;19.00;4.75;;;;;;;;;;5008550;28;100626;-70
2023/09/14 08:32:21;;;;;;;9.32;4.32;;;;;;;;;;5010061;28;98655;-71
2023/09/14 08:34:48;;;;;;;12.07;4.55;;;;;;;;;;5005976;28;100072;-69
2023/09/14 08:37:14;;;;;;;13.77;5.60;;;;;;;;;;5005679;28;98255;-70
2023/09/14 08:39:41;;;;;;;9.13;4.57;;;;;;;;;;5006617;28;98908;-71
2023/09/14 08:42:08;;;;;;;8.07;4.63;;;;;;;;;;5005262;28;98991;-70
2023/09/14 08:44:34;;;;;;;8.13;4.53;;;;;;;;;;5006578;27;98813;-70
2023/09/14 08:47:01;;;;;;;9.88;4.60;;;;;;;;;;5008328;27;99036;-71
2023/09/14 08:49:30;;;;;;;10.05;5.40;;;;;;;;;;5008265;27;99105;-70
2023/09/14 08:52:01;;;;;;;23.85;4.97;;;;;;;;;;5006679;28;98813;-71
2023/09/14 08:54:27;;;;;;;14.27;4.88;;;;;;;;;;5011928;27;98671;-69
2023/09/14 08:56:54;;;;;;;11.10;5.10;;;;;;;;;;5011523;27;98286;-69
2023/09/14 08:59:20;;;;;;;10.65;4.30;;;;;;;;;;5010539;28;98893;-70
2023/09/14 09:01:50;;;;;;;15.23;4.40;;;;;;;;;;5009616;28;100213;-70
2023/09/14 09:04:17;;;;;;;8.77;4.40;;;;;;;;;;5010270;28;98694;-69
2023/09/14 09:06:44;;;;;;;12.70;4.32;;;;;;;;;;5010562;28;99373;-70
2023/09/14 09:09:12;;;;;;;7.68;4.82;;;;;;;;;;5009624;28;100328;-70
2023/09/14 09:11:38;;;;;;;9.18;4.38;;;;;;;;;;5010543;28;98256;-70
2023/09/14 09:14:07;;;;;;;6.43;3.80;;;;;;;;;;5010085;28;99523;-70
2023/09/14 09:16:34;;;;;;;12.38;4.57;;;;;;;;;;5011696;28;100239;-69
2023/09/14 09:19:02;;;;;;;13.80;4.47;;;;;;;;;;5010180;28;99152;-70
2023/09/14 09:21:34;;;;;;;8.75;3.95;;;;;;;;;;5009538;28;99115;-69
2023/09/14 09:24:03;;;;;;;7.45;3.67;;;;;;;;;;5009140;28;98279;-72
2023/09/14 09:26:32;;;;;;;7.35;4.28;;;;;;;;;;5010324;28;99461;-71
2023/09/14 09:28:58;;;;;;;6.47;4.18;;;;;;;;;;5013208;28;99848;-70
2023/09/14 09:31:41;;;;;;;10.95;3.95;;;;;;;;;;5013081;28;98748;-71
2023/09/14 09:34:12;;;;;;;7.35;3.85;;;;;;;;;;5010593;28;98639;-70
2023/09/14 09:36:39;;;;;;;5.75;4.00;;;;;;;;;;5010304;27;98850;-69
2023/09/14 09:39:11;;;;;;;10.00;5.40;;;;;;;;;;5013129;28;98227;-69
2023/09/14 09:41:37;;;;;;;7.32;4.22;;;;;;;;;;5009288;28;99005;-70
2023/09/14 09:44:07;;;;;;;4.95;3.15;;;;;;;;;;5009187;28;98195;-70
2023/09/14 09:46:36;;;;;;;6.82;3.70;;;;;;;;;;5009429;28;99430;-70
2023/09/14 09:49:04;;;;;;;8.65;4.13;;;;;;;;;;5009574;28;100511;-70
2023/09/14 09:51:33;;;;;;;4.78;3.17;;;;;;;;;;5009334;28;98349;-70
2023/09/14 09:54:00;;;;;;;4.40;3.58;;;;;;;;;;5009868;28;98773;-70
2023/09/14 09:56:27;;;;;;;6.00;3.45;;;;;;;;;;5009311;28;99059;-71
2023/09/14 09:58:54;;;;;;;10.18;3.45;;;;;;;;;;5009317;28;98204;-70
2023/09/14 10:01:21;;;;;;;4.30;3.25;;;;;;;;;;5012239;28;99849;-70
2023/09/14 10:03:48;;;;;;;6.35;3.97;;;;;;;;;;5010492;27;98244;-69
2023/09/14 10:06:15;;;;;;;5.15;3.20;;;;;;;;;;5006441;28;99759;-70
2023/09/14 10:08:51;;;;;;;12.77;4.20;;;;;;;;;;5009898;27;99078;-71
2023/09/14 10:11:17;;;;;;;4.10;3.22;;;;;;;;;;5008608;28;98229;-70
2023/09/14 10:13:44;;;;;;;7.53;3.30;;;;;;;;;;5010080;27;98735;-69
2023/09/14 10:16:11;;;;;;;9.70;4.22;;;;;;;;;;5009951;27;99000;-70
2023/09/14 10:18:38;;;;;;;7.95;3.53;;;;;;;;;;5008958;28;98253;-70
2023/09/14 10:21:05;;;;;;;8.60;3.20;;;;;;;;;;5010326;27;98358;-71
2023/09/14 10:23:32;;;;;;;6.30;3.03;;;;;;;;;;5011659;28;98272;-70
2023/09/14 10:25:58;;;;;;;5.97;2.25;;;;;;;;;;5010109;28;98608;-70
2023/09/14 10:28:28;;;;;;;4.80;2.42;;;;;;;;;;5012210;28;100119;-70
2023/09/14 10:30:55;;;;;;;6.50;2.13;;;;;;;;;;5009697;28;98614;-70
2023/09/14 10:33:24;;;;;;;6.75;2.83;;;;;;;;;;5008012;28;99413;-70
2023/09/14 10:35:51;;;;;;;5.78;2.50;;;;;;;;;;5008879;28;100129;-70
2023/09/14 10:38:22;;;;;;;3.67;2.00;;;;;;;;;;5008629;28;98201;-70
2023/09/14 10:40:50;;;;;;;5.03;2.53;;;;;;;;;;5008231;28;99142;-70
2023/09/14 10:43:16;;;;;;;3.03;2.65;;;;;;;;;;5012741;27;99612;-69
2023/09/14 10:45:43;;;;;;;8.15;2.83;;;;;;;;;;5008924;28;99488;-69
2023/09/14 10:48:14;;;;;;;6.47;2.63;;;;;;;;;;5008701;28;99225;-71
2023/09/14 10:50:41;;;;;;;4.55;2.42;;;;;;;;;;5009221;28;98848;-69
2023/09/14 10:53:08;;;;;;;4.57;2.42;;;;;;;;;;5008905;28;99453;-69
2023/09/14 10:55:35;;;;;;;4.25;2.33;;;;;;;;;;5006455;28;99941;-71
2023/09/14 10:58:03;;;;;;;4.25;2.60;;;;;;;;;;5008758;28;98228;-70
2023/09/14 11:00:31;;;;;;;2.58;2.38;;;;;;;;;;5008140;28;99667;-70
2023/09/14 11:03:17;;;;;;;7.38;3.00;;;;;;;;;;5008155;28;99999;-69
2023/09/14 11:05:50;;;;;;;10.02;2.92;;;;;;;;;;5011701;28;98185;-71
2023/09/14 11:08:21;;;;;;;4.28;2.50;;;;;;;;;;5006058;28;100168;-70
2023/09/14 11:10:52;;;;;;;12.25;2.97;;;;;;;;;;5009329;27;98311;-71
2023/09/14 11:13:19;;;;;;;3.40;2.45;;;;;;;;;;5008175;28;99295;-71
2023/09/14 11:15:47;;;;;;;2.92;2.42;;;;;;;;;;5007318;28;100380;-71
2023/09/14 11:18:18;;;;;;;4.18;2.80;;;;;;;;;;5007812;28;98232;-70
2023/09/14 11:20:46;;;;;;;7.05;3.30;;;;;;;;;;5007571;28;98591;-70
2023/09/14 11:23:13;;;;;;;2.95;2.40;;;;;;;;;;5007488;28;99286;-69
2023/09/14 11:25:43;;;;;;;6.63;2.53;;;;;;;;;;5008194;28;98228;-70
2023/09/14 11:28:29;;;;;;;7.07;2.25;;;;;;;;;;5011035;28;99631;-70
2023/09/14 11:30:56;;;;;;;3.70;2.72;;;;;;;;;;5007366;28;98264;-70
2023/09/14 11:33:25;;;;;;;4.00;2.15;;;;;;;;;;5007617;28;99431;-70
2023/09/14 11:35:53;;;;;;;5.68;2.80;;;;;;;;;;5007116;28;100549;-70
2023/09/14 11:38:25;;;;;;;6.40;2.78;;;;;;;;;;5008041;28;98307;-70
2023/09/14 11:40:54;;;;;;;2.67;2.38;;;;;;;;;;5008160;28;98828;-70
2023/09/14 11:44:01;;;;;;;4.65;2.03;;;;;;;;;;5007696;28;98994;-69
2023/09/14 11:46:48;;;;;;;3.55;2.08;;;;;;;;;;5007644;28;98316;-70
2023/09/14 11:49:18;;;;;;;4.78;2.53;;;;;;;;;;5008236;28;98813;-70
2023/09/14 11:51:53;;;;;;;3.95;2.72;;;;;;;;;;5009793;28;99007;-70
2023/09/14 11:54:20;;;;;;;4.55;2.53;;;;;;;;;;5007452;28;99672;-71
2023/09/14 11:56:48;;;;;;;6.18;3.25;;;;;;;;;;5006980;28;99915;-69
2023/09/14 11:59:28;;;;;;;5.65;2.30;;;;;;;;;;5007337;28;98315;-69
2023/09/14 12:01:55;;;;;;;9.43;2.42;;;;;;;;;;5007601;28;99364;-70
2023/09/14 12:04:25;;;;;;;7.93;2.22;;;;;;;;;;5006700;28;99922;-70
2023/09/14 12:06:53;;;;;;;3.50;2.22;;;;;;;;;;5007631;28;98913;-69
2023/09/14 12:09:36;;;;;;;4.35;2.60;;;;;;;;;;5007349;28;98601;-70
2023/09/14 12:12:09;;;;;;;4.07;2.22;;;;;;;;;;5005514;28;99946;-70
2023/09/14 12:14:36;;;;;;;4.00;2.42;;;;;;;;;;5009820;28;98092;-69
2023/09/14 12:17:17;;;;;;;3.97;2.33;;;;;;;;;;5007148;28;98846;-69
2023/09/14 12:19:44;;;;;;;5.60;2.95;;;;;;;;;;5006870;28;98394;-69
2023/09/14 12:22:11;;;;;;;4.90;2.72;;;;;;;;;;5007321;28;98679;-71
2023/09/14 12:24:37;;;;;;;4.15;2.85;;;;;;;;;;5006919;28;99055;-70
2023/09/14 12:27:03;;;;;;;3.08;2.42;;;;;;;;;;5005189;28;98243;-69
2023/09/14 12:29:30;;;;;;;5.38;2.55;;;;;;;;;;5006203;28;98473;-70
2023/09/14 12:31:56;;;;;;;5.35;2.55;;;;;;;;;;5006076;28;99960;-70
2023/09/14 12:34:23;;;;;;;4.30;1.90;;;;;;;;;;5009854;28;98238;-70
2023/09/14 12:36:49;;;;;;;4.40;2.67;;;;;;;;;;5005094;28;99209;-69
2023/09/14 12:39:16;;;;;;;2.65;2.13;;;;;;;;;;5006177;28;99081;-70
2023/09/14 12:41:42;;;;;;;2.70;2.47;;;;;;;;;;5005565;28;99753;-70
2023/09/14 12:44:09;;;;;;;4.45;2.20;;;;;;;;;;5006151;28;99976;-71
2023/09/14 12:46:37;;;;;;;4.53;1.85;;;;;;;;;;5005437;28;98277;-71
2023/09/14 12:49:04;;;;;;;2.50;2.13;;;;;;;;;;5005045;28;98569;-69
2023/09/14 12:51:32;;;;;;;5.78;2.53;;;;;;;;;;4990144;28;100029;-70
2023/09/14 12:54:01;;;;;;;8.18;2.70;;;;;;;;;;4986696;28;98225;-71
2023/09/14 12:56:28;;;;;;;4.28;2.13;;;;;;;;;;4989627;28;98581;-69
2023/09/14 12:58:55;;;;;;;7.85;2.25;;;;;;;;;;4987272;28;98267;-70
2023/09/14 13:01:23;;;;;;;9.40;2.50;;;;;;;;;;4985049;28;98742;-70
2023/09/14 13:03:50;;;;;;;7.47;2.55;;;;;;;;;;4986935;28;100204;-69
2023/09/14 13:06:17;;;;;;;8.57;2.20;;;;;;;;;;4988315;28;98261;-71
2023/09/14 13:08:46;;;;;;;3.13;2.30;;;;;;;;;;4987214;28;98443;-70
2023/09/14 13:11:21;;;;;;;8.40;2.80;;;;;;;;;;4987867;28;99792;-70
2023/09/14 13:13:47;;;;;;;9.80;2.72;;;;;;;;;;4987456;28;98014;-69
2023/09/14 13:16:17;;;;;;;5.55;2.72;;;;;;;;;;4986117;28;99515;-69
2023/09/14 13:18:44;;;;;;;6.18;3.00;;;;;;;;;;4990285;28;100251;-68
2023/09/14 13:21:11;;;;;;;7.65;2.70;;;;;;;;;;4986420;28;99653;-70
2023/09/14 13:23:39;;;;;;;7.07;2.90;;;;;;;;;;4987372;28;99198;-70
2023/09/14 13:26:06;;;;;;;4.20;2.67;;;;;;;;;;4986072;28;98332;-70
2023/09/14 13:28:33;;;;;;;5.88;2.67;;;;;;;;;;4985866;28;99500;-70
2023/09/14 13:30:59;;;;;;;3.75;2.35;;;;;;;;;;4986376;28;99933;-70
2023/09/14 13:33:27;;;;;;;7.82;2.78;;;;;;;;;;4986448;28;98531;-70
2023/09/14 13:35:56;;;;;;;5.07;2.72;;;;;;;;;;4985757;28;98655;-70
2023/09/14 13:38:22;;;;;;;5.40;2.92;;;;;;;;;;4986003;28;100078;-70
2023/09/14 13:40:50;;;;;;;7.10;2.88;;;;;;;;;;4992195;28;97944;-70
2023/09/14 13:43:17;;;;;;;4.72;2.63;;;;;;;;;;4989894;27;99117;-69
2023/09/14 13:45:43;;;;;;;4.60;2.72;;;;;;;;;;4990848;27;98250;-71
2023/09/14 13:48:10;;;;;;;4.32;2.28;;;;;;;;;;4990048;28;98644;-69
2023/09/14 13:50:36;;;;;;;5.55;2.58;;;;;;;;;;4988385;28;98783;-69
2023/09/14 13:53:05;;;;;;;9.80;3.15;;;;;;;;;;4990022;28;98018;-70
2023/09/14 13:55:32;;;;;;;6.25;2.33;;;;;;;;;;4989078;28;100051;-69
2023/09/14 13:57:58;;;;;;;7.00;2.55;;;;;;;;;;4988922;28;100032;-69
2023/09/14 14:00:25;;;;;;;3.10;2.90;;;;;;;;;;4989429;28;98262;-70
2023/09/14 14:03:04;;;;;;;10.75;4.75;;;;;;;;;;4992117;28;99766;-70
2023/09/14 14:05:31;;;;;;;6.03;2.70;;;;;;;;;;4988486;28;99044;-69
2023/09/14 14:07:58;;;;;;;7.32;2.45;;;;;;;;;;4989894;28;99384;-70
2023/09/14 14:10:25;;;;;;;4.78;2.70;;;;;;;;;;4988817;28;100249;-71
2023/09/14 14:12:51;;;;;;;5.88;2.60;;;;;;;;;;4988931;28;98742;-70
2023/09/14 14:15:18;;;;;;;4.88;2.63;;;;;;;;;;4987860;28;98483;-70
2023/09/14 14:17:46;;;;;;;6.03;2.80;;;;;;;;;;4988988;28;98929;-70
2023/09/14 14:20:12;;;;;;;7.88;2.67;;;;;;;;;;4988846;28;98253;-70
2023/09/14 14:22:39;;;;;;;5.38;2.78;;;;;;;;;;4989591;28;98621;-71
2023/09/14 14:25:06;;;;;;;3.95;2.28;;;;;;;;;;4991590;28;99963;-71
2023/09/14 14:27:32;;;;;;;9.90;2.88;;;;;;;;;;4989479;28;98778;-69
2023/09/14 14:29:59;;;;;;;5.32;2.58;;;;;;;;;;4988716;28;100144;-71
2023/09/14 14:32:27;;;;;;;5.55;2.47;;;;;;;;;;4988334;28;98258;-69
2023/09/14 14:34:54;;;;;;;4.43;2.60;;;;;;;;;;4989323;28;98641;-70
2023/09/14 14:37:21;;;;;;;4.63;2.50;;;;;;;;;;4988833;28;99058;-70
2023/09/14 14:39:48;;;;;;;5.57;2.70;;;;;;;;;;4987788;28;98236;-70
2023/09/14 14:42:14;;;;;;;5.72;2.92;;;;;;;;;;4988743;28;99418;-70